sensor_id;sensor_type;location;lat;lon;timestamp;P1;durP1;ratioP1;P2;durP2;ratioP2
58071;SDS011;60383;46.626;18.866;2023-01-26T00:01:42;13.45;;;8.35;;
58071;SDS011;60383;46.626;18.866;2023-01-26T00:04:09;14.35;;;9.32;;
58071;SDS011;60383;46.626;18.866;2023-01-26T00:06:34;14.68;;;9.32;;
58071;SDS011;60383;46.626;18.866;2023-01-26T00:09:00;14.38;;;9.35;;
58071;SDS011;60383;46.626;18.866;2023-01-26T00:11:26;13.57;;;9.02;;
58071;SDS011;60383;46.626;18.866;2023-01-26T00:13:56;16.67;;;9.73;;
58071;SDS011;60383;46.626;18.866;2023-01-26T00:16:23;14.68;;;8.93;;
58071;SDS011;60383;46.626;18.866;2023-01-26T00:18:50;14.75;;;8.90;;
58071;SDS011;60383;46.626;18.866;2023-01-26T00:21:16;15.18;;;8.90;;
58071;SDS011;60383;46.626;18.866;2023-01-26T00:23:44;14.48;;;9.00;;
58071;SDS011;60383;46.626;18.866;2023-01-26T00:26:14;14.50;;;9.55;;
58071;SDS011;60383;46.626;18.866;2023-01-26T00:28:42;15.40;;;9.82;;
58071;SDS011;60383;46.626;18.866;2023-01-26T00:31:10;16.85;;;9.35;;
58071;SDS011;60383;46.626;18.866;2023-01-26T00:33:38;17.25;;;9.80;;
58071;SDS011;60383;46.626;18.866;2023-01-26T00:36:04;13.65;;;9.00;;
58071;SDS011;60383;46.626;18.866;2023-01-26T00:38:30;15.45;;;9.45;;
58071;SDS011;60383;46.626;18.866;2023-01-26T00:40:55;15.98;;;9.45;;
58071;SDS011;60383;46.626;18.866;2023-01-26T00:43:20;15.13;;;9.57;;
58071;SDS011;60383;46.626;18.866;2023-01-26T00:45:46;15.38;;;9.10;;
58071;SDS011;60383;46.626;18.866;2023-01-26T00:48:11;16.20;;;9.13;;
58071;SDS011;60383;46.626;18.866;2023-01-26T00:50:37;15.13;;;9.70;;
58071;SDS011;60383;46.626;18.866;2023-01-26T00:53:02;13.85;;;9.27;;
58071;SDS011;60383;46.626;18.866;2023-01-26T00:55:28;16.40;;;10.15;;
58071;SDS011;60383;46.626;18.866;2023-01-26T00:57:59;14.77;;;9.57;;
58071;SDS011;60383;46.626;18.866;2023-01-26T01:00:26;16.73;;;9.70;;
58071;SDS011;60383;46.626;18.866;2023-01-26T01:02:52;18.10;;;10.15;;
58071;SDS011;60383;46.626;18.866;2023-01-26T01:05:20;17.02;;;10.25;;
58071;SDS011;60383;46.626;18.866;2023-01-26T01:07:46;15.45;;;9.88;;
58071;SDS011;60383;46.626;18.866;2023-01-26T01:10:12;16.63;;;10.02;;
58071;SDS011;60383;46.626;18.866;2023-01-26T01:12:37;15.27;;;9.70;;
58071;SDS011;60383;46.626;18.866;2023-01-26T01:15:03;15.20;;;10.13;;
58071;SDS011;60383;46.626;18.866;2023-01-26T01:17:29;16.13;;;10.30;;
58071;SDS011;60383;46.626;18.866;2023-01-26T01:19:54;14.98;;;9.00;;
58071;SDS011;60383;46.626;18.866;2023-01-26T01:22:19;14.55;;;9.50;;
58071;SDS011;60383;46.626;18.866;2023-01-26T01:24:45;14.27;;;9.25;;
58071;SDS011;60383;46.626;18.866;2023-01-26T01:27:10;15.82;;;9.32;;
58071;SDS011;60383;46.626;18.866;2023-01-26T01:29:36;13.80;;;9.15;;
58071;SDS011;60383;46.626;18.866;2023-01-26T01:32:02;14.55;;;8.75;;
58071;SDS011;60383;46.626;18.866;2023-01-26T01:34:27;15.07;;;8.80;;
58071;SDS011;60383;46.626;18.866;2023-01-26T01:36:53;14.55;;;9.05;;
58071;SDS011;60383;46.626;18.866;2023-01-26T01:39:18;14.10;;;8.82;;
58071;SDS011;60383;46.626;18.866;2023-01-26T01:41:43;12.25;;;8.40;;
58071;SDS011;60383;46.626;18.866;2023-01-26T01:44:10;13.63;;;8.68;;
58071;SDS011;60383;46.626;18.866;2023-01-26T01:46:36;13.88;;;8.23;;
58071;SDS011;60383;46.626;18.866;2023-01-26T01:49:04;12.88;;;7.85;;
58071;SDS011;60383;46.626;18.866;2023-01-26T01:51:36;14.38;;;8.48;;
58071;SDS011;60383;46.626;18.866;2023-01-26T01:54:09;13.63;;;8.68;;
58071;SDS011;60383;46.626;18.866;2023-01-26T01:56:40;14.88;;;9.20;;
58071;SDS011;60383;46.626;18.866;2023-01-26T01:59:09;13.00;;;8.23;;
58071;SDS011;60383;46.626;18.866;2023-01-26T02:01:36;15.85;;;8.70;;
58071;SDS011;60383;46.626;18.866;2023-01-26T02:04:02;14.43;;;8.52;;
58071;SDS011;60383;46.626;18.866;2023-01-26T02:06:48;16.35;;;9.30;;
58071;SDS011;60383;46.626;18.866;2023-01-26T02:09:17;16.90;;;9.65;;
58071;SDS011;60383;46.626;18.866;2023-01-26T02:12:05;18.17;;;10.73;;
58071;SDS011;60383;46.626;18.866;2023-01-26T02:14:35;16.13;;;10.45;;
58071;SDS011;60383;46.626;18.866;2023-01-26T02:17:01;17.98;;;11.40;;
58071;SDS011;60383;46.626;18.866;2023-01-26T02:19:42;21.67;;;13.57;;
58071;SDS011;60383;46.626;18.866;2023-01-26T02:24:57;28.42;;;18.63;;
58071;SDS011;60383;46.626;18.866;2023-01-26T02:27:28;15.43;;;10.07;;
58071;SDS011;60383;46.626;18.866;2023-01-26T02:29:54;17.52;;;10.27;;
58071;SDS011;60383;46.626;18.866;2023-01-26T02:32:20;16.95;;;9.63;;
58071;SDS011;60383;46.626;18.866;2023-01-26T02:34:46;18.98;;;11.18;;
58071;SDS011;60383;46.626;18.866;2023-01-26T02:37:12;18.88;;;10.73;;
58071;SDS011;60383;46.626;18.866;2023-01-26T02:42:17;17.67;;;11.05;;
58071;SDS011;60383;46.626;18.866;2023-01-26T02:45:01;17.55;;;11.02;;
58071;SDS011;60383;46.626;18.866;2023-01-26T02:47:27;17.52;;;10.40;;
58071;SDS011;60383;46.626;18.866;2023-01-26T02:49:52;20.48;;;11.23;;
58071;SDS011;60383;46.626;18.866;2023-01-26T02:52:20;18.05;;;10.63;;
58071;SDS011;60383;46.626;18.866;2023-01-26T02:54:47;17.80;;;11.70;;
58071;SDS011;60383;46.626;18.866;2023-01-26T02:57:31;18.63;;;11.05;;
58071;SDS011;60383;46.626;18.866;2023-01-26T02:59:59;20.42;;;12.10;;
58071;SDS011;60383;46.626;18.866;2023-01-26T03:02:24;18.73;;;11.60;;
58071;SDS011;60383;46.626;18.866;2023-01-26T03:04:50;19.13;;;11.25;;
58071;SDS011;60383;46.626;18.866;2023-01-26T03:07:15;18.10;;;10.27;;
58071;SDS011;60383;46.626;18.866;2023-01-26T03:09:41;19.75;;;12.35;;
58071;SDS011;60383;46.626;18.866;2023-01-26T03:12:06;18.02;;;11.15;;
58071;SDS011;60383;46.626;18.866;2023-01-26T03:14:32;18.58;;;11.55;;
58071;SDS011;60383;46.626;18.866;2023-01-26T03:16:57;19.55;;;10.77;;
58071;SDS011;60383;46.626;18.866;2023-01-26T03:19:23;19.35;;;11.77;;
58071;SDS011;60383;46.626;18.866;2023-01-26T03:22:07;19.52;;;11.52;;
58071;SDS011;60383;46.626;18.866;2023-01-26T03:24:52;17.13;;;10.90;;
58071;SDS011;60383;46.626;18.866;2023-01-26T03:27:41;20.42;;;11.65;;
58071;SDS011;60383;46.626;18.866;2023-01-26T03:30:09;19.80;;;11.75;;
58071;SDS011;60383;46.626;18.866;2023-01-26T03:32:36;17.65;;;11.40;;
58071;SDS011;60383;46.626;18.866;2023-01-26T03:35:01;17.98;;;12.23;;
58071;SDS011;60383;46.626;18.866;2023-01-26T03:37:27;18.00;;;10.85;;
58071;SDS011;60383;46.626;18.866;2023-01-26T03:39:58;19.65;;;12.30;;
58071;SDS011;60383;46.626;18.866;2023-01-26T03:42:42;20.75;;;12.15;;
58071;SDS011;60383;46.626;18.866;2023-01-26T03:45:26;21.20;;;12.80;;
58071;SDS011;60383;46.626;18.866;2023-01-26T03:48:11;20.42;;;11.65;;
58071;SDS011;60383;46.626;18.866;2023-01-26T03:50:55;22.02;;;12.80;;
58071;SDS011;60383;46.626;18.866;2023-01-26T03:53:40;20.83;;;13.13;;
58071;SDS011;60383;46.626;18.866;2023-01-26T03:56:25;22.35;;;11.77;;
58071;SDS011;60383;46.626;18.866;2023-01-26T03:58:59;22.52;;;12.20;;
58071;SDS011;60383;46.626;18.866;2023-01-26T04:01:33;24.20;;;12.43;;
58071;SDS011;60383;46.626;18.866;2023-01-26T04:04:26;21.17;;;12.13;;
58071;SDS011;60383;46.626;18.866;2023-01-26T04:07:11;21.33;;;12.45;;
58071;SDS011;60383;46.626;18.866;2023-01-26T04:09:55;21.20;;;11.73;;
58071;SDS011;60383;46.626;18.866;2023-01-26T04:12:20;19.48;;;11.98;;
58071;SDS011;60383;46.626;18.866;2023-01-26T04:14:46;20.67;;;12.50;;
58071;SDS011;60383;46.626;18.866;2023-01-26T04:17:30;20.75;;;12.30;;
58071;SDS011;60383;46.626;18.866;2023-01-26T04:20:14;21.27;;;12.70;;
58071;SDS011;60383;46.626;18.866;2023-01-26T04:22:58;19.33;;;11.98;;
58071;SDS011;60383;46.626;18.866;2023-01-26T04:25:24;19.23;;;12.18;;
58071;SDS011;60383;46.626;18.866;2023-01-26T04:27:49;20.00;;;11.95;;
58071;SDS011;60383;46.626;18.866;2023-01-26T04:30:15;21.38;;;11.88;;
58071;SDS011;60383;46.626;18.866;2023-01-26T04:32:41;21.55;;;12.38;;
58071;SDS011;60383;46.626;18.866;2023-01-26T04:35:08;20.48;;;12.25;;
58071;SDS011;60383;46.626;18.866;2023-01-26T04:37:34;21.15;;;12.32;;
58071;SDS011;60383;46.626;18.866;2023-01-26T04:40:00;20.42;;;11.57;;
58071;SDS011;60383;46.626;18.866;2023-01-26T04:42:25;19.25;;;11.98;;
58071;SDS011;60383;46.626;18.866;2023-01-26T04:44:51;19.88;;;11.05;;
58071;SDS011;60383;46.626;18.866;2023-01-26T04:47:18;22.58;;;12.30;;
58071;SDS011;60383;46.626;18.866;2023-01-26T04:49:44;20.67;;;11.60;;
58071;SDS011;60383;46.626;18.866;2023-01-26T04:52:09;21.88;;;13.05;;
58071;SDS011;60383;46.626;18.866;2023-01-26T04:54:35;21.48;;;13.23;;
58071;SDS011;60383;46.626;18.866;2023-01-26T04:57:00;20.50;;;11.63;;
58071;SDS011;60383;46.626;18.866;2023-01-26T04:59:26;19.65;;;11.80;;
58071;SDS011;60383;46.626;18.866;2023-01-26T05:01:51;19.38;;;11.45;;
58071;SDS011;60383;46.626;18.866;2023-01-26T05:04:17;22.73;;;11.95;;
58071;SDS011;60383;46.626;18.866;2023-01-26T05:06:42;22.45;;;12.70;;
58071;SDS011;60383;46.626;18.866;2023-01-26T05:09:08;19.63;;;10.90;;
58071;SDS011;60383;46.626;18.866;2023-01-26T05:11:33;20.10;;;11.85;;
58071;SDS011;60383;46.626;18.866;2023-01-26T05:13:59;19.50;;;11.65;;
58071;SDS011;60383;46.626;18.866;2023-01-26T05:16:25;22.70;;;12.05;;
58071;SDS011;60383;46.626;18.866;2023-01-26T05:18:50;20.48;;;11.90;;
58071;SDS011;60383;46.626;18.866;2023-01-26T05:21:17;20.20;;;12.18;;
58071;SDS011;60383;46.626;18.866;2023-01-26T05:23:43;20.70;;;12.05;;
58071;SDS011;60383;46.626;18.866;2023-01-26T05:26:08;21.15;;;12.85;;
58071;SDS011;60383;46.626;18.866;2023-01-26T05:28:34;21.85;;;12.73;;
58071;SDS011;60383;46.626;18.866;2023-01-26T05:31:00;24.33;;;13.82;;
58071;SDS011;60383;46.626;18.866;2023-01-26T05:33:25;19.92;;;12.43;;
58071;SDS011;60383;46.626;18.866;2023-01-26T05:35:51;20.48;;;11.80;;
58071;SDS011;60383;46.626;18.866;2023-01-26T05:38:17;21.63;;;12.50;;
58071;SDS011;60383;46.626;18.866;2023-01-26T05:40:43;20.17;;;12.30;;
58071;SDS011;60383;46.626;18.866;2023-01-26T05:43:09;21.20;;;13.05;;
58071;SDS011;60383;46.626;18.866;2023-01-26T05:45:36;21.52;;;12.50;;
58071;SDS011;60383;46.626;18.866;2023-01-26T05:48:02;21.08;;;12.68;;
58071;SDS011;60383;46.626;18.866;2023-01-26T05:50:28;21.58;;;12.93;;
58071;SDS011;60383;46.626;18.866;2023-01-26T05:52:53;22.88;;;12.27;;
58071;SDS011;60383;46.626;18.866;2023-01-26T05:55:19;21.42;;;12.20;;
58071;SDS011;60383;46.626;18.866;2023-01-26T05:57:45;21.65;;;12.13;;
58071;SDS011;60383;46.626;18.866;2023-01-26T06:00:11;22.23;;;12.85;;
58071;SDS011;60383;46.626;18.866;2023-01-26T06:02:37;21.55;;;12.90;;
58071;SDS011;60383;46.626;18.866;2023-01-26T06:05:03;21.80;;;13.00;;
58071;SDS011;60383;46.626;18.866;2023-01-26T06:07:29;22.73;;;13.30;;
58071;SDS011;60383;46.626;18.866;2023-01-26T06:09:54;22.52;;;12.80;;
58071;SDS011;60383;46.626;18.866;2023-01-26T06:12:20;25.35;;;14.07;;
58071;SDS011;60383;46.626;18.866;2023-01-26T06:14:47;25.58;;;14.05;;
58071;SDS011;60383;46.626;18.866;2023-01-26T06:17:12;24.75;;;14.93;;
58071;SDS011;60383;46.626;18.866;2023-01-26T06:19:38;25.10;;;14.88;;
58071;SDS011;60383;46.626;18.866;2023-01-26T06:22:07;24.33;;;14.57;;
58071;SDS011;60383;46.626;18.866;2023-01-26T06:24:34;25.80;;;13.90;;
58071;SDS011;60383;46.626;18.866;2023-01-26T06:27:00;24.67;;;13.50;;
58071;SDS011;60383;46.626;18.866;2023-01-26T06:29:26;27.35;;;14.90;;
58071;SDS011;60383;46.626;18.866;2023-01-26T06:31:51;27.20;;;15.80;;
58071;SDS011;60383;46.626;18.866;2023-01-26T06:34:17;26.33;;;13.85;;
58071;SDS011;60383;46.626;18.866;2023-01-26T06:36:44;28.25;;;14.95;;
58071;SDS011;60383;46.626;18.866;2023-01-26T06:39:10;25.27;;;14.10;;
58071;SDS011;60383;46.626;18.866;2023-01-26T06:41:36;27.73;;;14.43;;
58071;SDS011;60383;46.626;18.866;2023-01-26T06:44:01;25.50;;;14.23;;
58071;SDS011;60383;46.626;18.866;2023-01-26T06:46:27;24.83;;;13.98;;
58071;SDS011;60383;46.626;18.866;2023-01-26T06:48:53;25.92;;;14.70;;
58071;SDS011;60383;46.626;18.866;2023-01-26T06:53:57;29.05;;;14.85;;
58071;SDS011;60383;46.626;18.866;2023-01-26T06:56:23;28.42;;;14.82;;
58071;SDS011;60383;46.626;18.866;2023-01-26T06:58:49;26.20;;;14.50;;
58071;SDS011;60383;46.626;18.866;2023-01-26T07:03:42;26.92;;;14.77;;
58071;SDS011;60383;46.626;18.866;2023-01-26T07:06:07;29.02;;;16.83;;
58071;SDS011;60383;46.626;18.866;2023-01-26T07:08:35;27.88;;;16.23;;
58071;SDS011;60383;46.626;18.866;2023-01-26T07:11:01;27.75;;;15.63;;
58071;SDS011;60383;46.626;18.866;2023-01-26T07:13:27;28.50;;;15.55;;
58071;SDS011;60383;46.626;18.866;2023-01-26T07:15:58;28.80;;;15.73;;
58071;SDS011;60383;46.626;18.866;2023-01-26T07:18:25;30.58;;;16.23;;
58071;SDS011;60383;46.626;18.866;2023-01-26T07:20:50;29.30;;;15.15;;
58071;SDS011;60383;46.626;18.866;2023-01-26T07:23:16;28.48;;;14.75;;
58071;SDS011;60383;46.626;18.866;2023-01-26T07:25:42;31.10;;;14.80;;
58071;SDS011;60383;46.626;18.866;2023-01-26T07:28:08;29.35;;;14.88;;
58071;SDS011;60383;46.626;18.866;2023-01-26T07:30:34;27.00;;;13.90;;
58071;SDS011;60383;46.626;18.866;2023-01-26T07:33:00;28.10;;;14.75;;
58071;SDS011;60383;46.626;18.866;2023-01-26T07:35:26;26.92;;;14.65;;
58071;SDS011;60383;46.626;18.866;2023-01-26T07:37:53;27.77;;;14.07;;
58071;SDS011;60383;46.626;18.866;2023-01-26T07:40:19;27.80;;;15.10;;
58071;SDS011;60383;46.626;18.866;2023-01-26T07:42:44;27.45;;;14.90;;
58071;SDS011;60383;46.626;18.866;2023-01-26T07:45:10;26.98;;;14.32;;
58071;SDS011;60383;46.626;18.866;2023-01-26T07:47:36;26.60;;;14.65;;
58071;SDS011;60383;46.626;18.866;2023-01-26T07:50:02;27.70;;;14.27;;
58071;SDS011;60383;46.626;18.866;2023-01-26T07:52:28;29.27;;;16.38;;
58071;SDS011;60383;46.626;18.866;2023-01-26T07:54:53;28.45;;;13.98;;
58071;SDS011;60383;46.626;18.866;2023-01-26T07:57:19;24.02;;;13.25;;
58071;SDS011;60383;46.626;18.866;2023-01-26T07:59:44;23.42;;;13.15;;
58071;SDS011;60383;46.626;18.866;2023-01-26T08:02:09;24.75;;;13.13;;
58071;SDS011;60383;46.626;18.866;2023-01-26T08:04:35;24.30;;;13.88;;
58071;SDS011;60383;46.626;18.866;2023-01-26T08:07:00;27.08;;;13.95;;
58071;SDS011;60383;46.626;18.866;2023-01-26T08:09:26;27.25;;;14.27;;
58071;SDS011;60383;46.626;18.866;2023-01-26T08:11:51;34.63;;;27.52;;
58071;SDS011;60383;46.626;18.866;2023-01-26T08:14:16;28.00;;;14.88;;
58071;SDS011;60383;46.626;18.866;2023-01-26T08:16:42;25.52;;;14.27;;
58071;SDS011;60383;46.626;18.866;2023-01-26T08:19:09;34.38;;;18.05;;
58071;SDS011;60383;46.626;18.866;2023-01-26T08:21:34;29.83;;;16.63;;
58071;SDS011;60383;46.626;18.866;2023-01-26T08:24:00;33.75;;;17.27;;
58071;SDS011;60383;46.626;18.866;2023-01-26T08:26:27;38.75;;;19.75;;
58071;SDS011;60383;46.626;18.866;2023-01-26T08:28:53;33.92;;;18.80;;
58071;SDS011;60383;46.626;18.866;2023-01-26T08:31:19;35.65;;;19.45;;
58071;SDS011;60383;46.626;18.866;2023-01-26T08:33:49;33.42;;;19.33;;
58071;SDS011;60383;46.626;18.866;2023-01-26T08:36:16;38.97;;;20.48;;
58071;SDS011;60383;46.626;18.866;2023-01-26T08:38:42;40.72;;;22.58;;
58071;SDS011;60383;46.626;18.866;2023-01-26T08:41:09;38.15;;;21.98;;
58071;SDS011;60383;46.626;18.866;2023-01-26T08:43:35;29.75;;;15.65;;
58071;SDS011;60383;46.626;18.866;2023-01-26T08:46:01;26.70;;;14.48;;
58071;SDS011;60383;46.626;18.866;2023-01-26T08:48:26;26.10;;;15.20;;
58071;SDS011;60383;46.626;18.866;2023-01-26T08:50:55;23.08;;;12.82;;
58071;SDS011;60383;46.626;18.866;2023-01-26T08:53:25;28.05;;;15.30;;
58071;SDS011;60383;46.626;18.866;2023-01-26T08:55:51;29.27;;;16.30;;
58071;SDS011;60383;46.626;18.866;2023-01-26T08:58:17;27.13;;;16.30;;
58071;SDS011;60383;46.626;18.866;2023-01-26T09:00:44;30.40;;;17.02;;
58071;SDS011;60383;46.626;18.866;2023-01-26T09:03:09;29.73;;;17.65;;
58071;SDS011;60383;46.626;18.866;2023-01-26T09:05:36;32.25;;;16.70;;
58071;SDS011;60383;46.626;18.866;2023-01-26T09:08:03;25.63;;;15.57;;
58071;SDS011;60383;46.626;18.866;2023-01-26T09:10:31;26.13;;;15.73;;
58071;SDS011;60383;46.626;18.866;2023-01-26T09:12:57;27.75;;;14.63;;
58071;SDS011;60383;46.626;18.866;2023-01-26T09:15:24;25.58;;;14.90;;
58071;SDS011;60383;46.626;18.866;2023-01-26T09:17:49;23.30;;;13.82;;
58071;SDS011;60383;46.626;18.866;2023-01-26T09:20:15;23.13;;;12.57;;
58071;SDS011;60383;46.626;18.866;2023-01-26T09:22:41;24.42;;;13.45;;
58071;SDS011;60383;46.626;18.866;2023-01-26T09:25:07;21.10;;;13.18;;
58071;SDS011;60383;46.626;18.866;2023-01-26T09:27:33;22.33;;;12.63;;
58071;SDS011;60383;46.626;18.866;2023-01-26T09:29:59;22.77;;;13.40;;
58071;SDS011;60383;46.626;18.866;2023-01-26T09:32:24;25.17;;;14.73;;
58071;SDS011;60383;46.626;18.866;2023-01-26T09:34:50;23.85;;;15.30;;
58071;SDS011;60383;46.626;18.866;2023-01-26T09:37:16;25.25;;;13.95;;
58071;SDS011;60383;46.626;18.866;2023-01-26T09:39:42;26.58;;;15.27;;
58071;SDS011;60383;46.626;18.866;2023-01-26T09:50:40;21.30;;;12.20;;
58071;SDS011;60383;46.626;18.866;2023-01-26T09:53:32;23.63;;;12.93;;
58071;SDS011;60383;46.626;18.866;2023-01-26T09:56:03;22.10;;;12.65;;
58071;SDS011;60383;46.626;18.866;2023-01-26T09:58:33;20.75;;;11.55;;
58071;SDS011;60383;46.626;18.866;2023-01-26T10:01:02;20.33;;;11.32;;
58071;SDS011;60383;46.626;18.866;2023-01-26T10:03:40;20.77;;;11.27;;
58071;SDS011;60383;46.626;18.866;2023-01-26T10:06:16;19.15;;;11.18;;
58071;SDS011;60383;46.626;18.866;2023-01-26T10:08:56;20.98;;;11.40;;
58071;SDS011;60383;46.626;18.866;2023-01-26T10:11:37;20.10;;;12.13;;
58071;SDS011;60383;46.626;18.866;2023-01-26T10:14:12;18.33;;;10.75;;
58071;SDS011;60383;46.626;18.866;2023-01-26T10:16:42;19.55;;;11.32;;
58071;SDS011;60383;46.626;18.866;2023-01-26T10:22:21;19.95;;;10.63;;
58071;SDS011;60383;46.626;18.866;2023-01-26T10:25:00;19.63;;;10.68;;
58071;SDS011;60383;46.626;18.866;2023-01-26T10:27:26;17.98;;;9.82;;
58071;SDS011;60383;46.626;18.866;2023-01-26T10:29:53;17.13;;;10.63;;
58071;SDS011;60383;46.626;18.866;2023-01-26T10:32:19;15.80;;;9.55;;
58071;SDS011;60383;46.626;18.866;2023-01-26T10:34:45;16.40;;;10.38;;
58071;SDS011;60383;46.626;18.866;2023-01-26T10:39:59;15.88;;;9.70;;
58071;SDS011;60383;46.626;18.866;2023-01-26T10:42:26;19.17;;;9.97;;
58071;SDS011;60383;46.626;18.866;2023-01-26T10:44:54;17.25;;;10.68;;
58071;SDS011;60383;46.626;18.866;2023-01-26T10:47:20;18.80;;;10.05;;
58071;SDS011;60383;46.626;18.866;2023-01-26T10:49:46;19.17;;;10.73;;
58071;SDS011;60383;46.626;18.866;2023-01-26T10:54:48;19.50;;;9.70;;
58071;SDS011;60383;46.626;18.866;2023-01-26T10:57:36;17.85;;;10.27;;
58071;SDS011;60383;46.626;18.866;2023-01-26T11:00:04;19.90;;;10.73;;
58071;SDS011;60383;46.626;18.866;2023-01-26T11:02:34;18.63;;;10.43;;
58071;SDS011;60383;46.626;18.866;2023-01-26T11:05:01;20.38;;;11.07;;
58071;SDS011;60383;46.626;18.866;2023-01-26T11:07:28;19.25;;;10.85;;
58071;SDS011;60383;46.626;18.866;2023-01-26T11:09:58;18.92;;;11.73;;
58071;SDS011;60383;46.626;18.866;2023-01-26T11:12:40;19.95;;;11.20;;
58071;SDS011;60383;46.626;18.866;2023-01-26T11:15:10;19.95;;;11.35;;
58071;SDS011;60383;46.626;18.866;2023-01-26T11:18:04;19.60;;;11.27;;
58071;SDS011;60383;46.626;18.866;2023-01-26T11:23:33;22.05;;;13.20;;
58071;SDS011;60383;46.626;18.866;2023-01-26T11:39:46;20.20;;;11.68;;
58071;SDS011;60383;46.626;18.866;2023-01-26T11:54:31;18.73;;;11.13;;
58071;SDS011;60383;46.626;18.866;2023-01-26T11:59:32;22.13;;;12.55;;
58071;SDS011;60383;46.626;18.866;2023-01-26T12:02:13;20.75;;;13.02;;
58071;SDS011;60383;46.626;18.866;2023-01-26T12:04:51;25.08;;;12.90;;
58071;SDS011;60383;46.626;18.866;2023-01-26T12:07:45;21.00;;;13.38;;
58071;SDS011;60383;46.626;18.866;2023-01-26T12:10:19;22.27;;;12.55;;
58071;SDS011;60383;46.626;18.866;2023-01-26T12:12:57;18.70;;;10.52;;
58071;SDS011;60383;46.626;18.866;2023-01-26T12:15:36;17.37;;;11.10;;
58071;SDS011;60383;46.626;18.866;2023-01-26T12:18:07;15.55;;;9.23;;
58071;SDS011;60383;46.626;18.866;2023-01-26T12:20:41;15.32;;;9.07;;
58071;SDS011;60383;46.626;18.866;2023-01-26T12:25:54;16.50;;;10.63;;
58071;SDS011;60383;46.626;18.866;2023-01-26T12:33:30;21.65;;;11.80;;
58071;SDS011;60383;46.626;18.866;2023-01-26T12:41:12;17.08;;;10.40;;
58071;SDS011;60383;46.626;18.866;2023-01-26T12:46:08;18.35;;;10.82;;
58071;SDS011;60383;46.626;18.866;2023-01-26T12:51:09;15.77;;;9.82;;
58071;SDS011;60383;46.626;18.866;2023-01-26T12:56:27;15.80;;;9.38;;
58071;SDS011;60383;46.626;18.866;2023-01-26T12:58:59;14.82;;;9.00;;
58071;SDS011;60383;46.626;18.866;2023-01-26T13:01:39;14.38;;;8.05;;
58071;SDS011;60383;46.626;18.866;2023-01-26T13:04:12;18.00;;;9.57;;
58071;SDS011;60383;46.626;18.866;2023-01-26T13:06:40;17.52;;;9.73;;
58071;SDS011;60383;46.626;18.866;2023-01-26T13:09:19;13.00;;;7.68;;
58071;SDS011;60383;46.626;18.866;2023-01-26T13:11:57;22.98;;;10.65;;
58071;SDS011;60383;46.626;18.866;2023-01-26T13:22:53;17.42;;;9.52;;
58071;SDS011;60383;46.626;18.866;2023-01-26T13:28:01;18.73;;;10.98;;
58071;SDS011;60383;46.626;18.866;2023-01-26T13:30:32;11.60;;;7.80;;
58071;SDS011;60383;46.626;18.866;2023-01-26T13:33:14;13.55;;;8.07;;
58071;SDS011;60383;46.626;18.866;2023-01-26T13:35:44;14.40;;;9.43;;
58071;SDS011;60383;46.626;18.866;2023-01-26T13:40:51;17.33;;;9.70;;
58071;SDS011;60383;46.626;18.866;2023-01-26T13:43:22;16.13;;;9.65;;
58071;SDS011;60383;46.626;18.866;2023-01-26T13:46:11;16.55;;;10.13;;
58071;SDS011;60383;46.626;18.866;2023-01-26T13:48:57;21.30;;;9.70;;
58071;SDS011;60383;46.626;18.866;2023-01-26T13:51:23;16.20;;;9.48;;
58071;SDS011;60383;46.626;18.866;2023-01-26T13:54:10;16.40;;;10.48;;
58071;SDS011;60383;46.626;18.866;2023-01-26T13:56:38;15.98;;;9.40;;
58071;SDS011;60383;46.626;18.866;2023-01-26T13:59:09;14.80;;;9.32;;
58071;SDS011;60383;46.626;18.866;2023-01-26T14:01:40;13.88;;;9.30;;
58071;SDS011;60383;46.626;18.866;2023-01-26T14:04:08;14.68;;;9.40;;
58071;SDS011;60383;46.626;18.866;2023-01-26T14:06:38;19.23;;;10.40;;
58071;SDS011;60383;46.626;18.866;2023-01-26T14:09:06;16.13;;;10.15;;
58071;SDS011;60383;46.626;18.866;2023-01-26T14:14:02;17.83;;;10.80;;
58071;SDS011;60383;46.626;18.866;2023-01-26T14:16:35;19.25;;;10.50;;
58071;SDS011;60383;46.626;18.866;2023-01-26T14:19:05;19.88;;;10.93;;
58071;SDS011;60383;46.626;18.866;2023-01-26T14:24:35;21.45;;;11.63;;
58071;SDS011;60383;46.626;18.866;2023-01-26T14:27:05;21.25;;;12.20;;
58071;SDS011;60383;46.626;18.866;2023-01-26T14:29:55;21.48;;;12.07;;
58071;SDS011;60383;46.626;18.866;2023-01-26T14:32:21;21.45;;;13.60;;
58071;SDS011;60383;46.626;18.866;2023-01-26T14:34:54;23.38;;;13.02;;
58071;SDS011;60383;46.626;18.866;2023-01-26T14:37:21;24.33;;;12.95;;
58071;SDS011;60383;46.626;18.866;2023-01-26T14:39:48;23.20;;;13.75;;
58071;SDS011;60383;46.626;18.866;2023-01-26T14:42:14;19.45;;;11.73;;
58071;SDS011;60383;46.626;18.866;2023-01-26T14:44:43;19.17;;;12.00;;
58071;SDS011;60383;46.626;18.866;2023-01-26T14:47:22;21.17;;;12.18;;
58071;SDS011;60383;46.626;18.866;2023-01-26T14:50:01;18.30;;;11.73;;
58071;SDS011;60383;46.626;18.866;2023-01-26T14:52:33;20.10;;;11.05;;
58071;SDS011;60383;46.626;18.866;2023-01-26T14:55:11;21.98;;;10.60;;
58071;SDS011;60383;46.626;18.866;2023-01-26T14:57:41;16.58;;;9.50;;
58071;SDS011;60383;46.626;18.866;2023-01-26T15:00:17;17.17;;;9.75;;
58071;SDS011;60383;46.626;18.866;2023-01-26T15:02:47;15.35;;;9.10;;
58071;SDS011;60383;46.626;18.866;2023-01-26T15:05:18;15.73;;;9.27;;
58071;SDS011;60383;46.626;18.866;2023-01-26T15:10:29;13.23;;;8.32;;
58071;SDS011;60383;46.626;18.866;2023-01-26T15:15:40;14.85;;;8.45;;
58071;SDS011;60383;46.626;18.866;2023-01-26T15:23:20;15.07;;;9.10;;
58071;SDS011;60383;46.626;18.866;2023-01-26T15:28:18;15.52;;;9.38;;
58071;SDS011;60383;46.626;18.866;2023-01-26T15:30:48;20.50;;;10.88;;
58071;SDS011;60383;46.626;18.866;2023-01-26T15:39:00;16.95;;;11.10;;
58071;SDS011;60383;46.626;18.866;2023-01-26T15:41:28;16.05;;;10.05;;
58071;SDS011;60383;46.626;18.866;2023-01-26T15:43:55;17.33;;;9.90;;
58071;SDS011;60383;46.626;18.866;2023-01-26T15:46:21;22.42;;;11.43;;
58071;SDS011;60383;46.626;18.866;2023-01-26T15:48:47;17.75;;;10.80;;
58071;SDS011;60383;46.626;18.866;2023-01-26T15:51:13;21.25;;;11.50;;
58071;SDS011;60383;46.626;18.866;2023-01-26T15:53:39;23.30;;;12.35;;
58071;SDS011;60383;46.626;18.866;2023-01-26T15:56:05;20.25;;;10.98;;
58071;SDS011;60383;46.626;18.866;2023-01-26T15:58:35;20.05;;;10.98;;
58071;SDS011;60383;46.626;18.866;2023-01-26T16:01:00;18.63;;;11.10;;
58071;SDS011;60383;46.626;18.866;2023-01-26T16:03:26;18.17;;;10.07;;
58071;SDS011;60383;46.626;18.866;2023-01-26T16:05:51;17.52;;;9.30;;
58071;SDS011;60383;46.626;18.866;2023-01-26T16:08:18;16.20;;;9.45;;
58071;SDS011;60383;46.626;18.866;2023-01-26T16:10:44;15.45;;;9.75;;
58071;SDS011;60383;46.626;18.866;2023-01-26T16:13:11;17.10;;;11.75;;
58071;SDS011;60383;46.626;18.866;2023-01-26T16:15:41;17.35;;;10.52;;
58071;SDS011;60383;46.626;18.866;2023-01-26T16:18:08;19.48;;;12.27;;
58071;SDS011;60383;46.626;18.866;2023-01-26T16:20:35;20.05;;;10.45;;